Time;durP1;ratioP1;P1;durP2;ratioP2;P2;SDS_P1;SDS_P2;PMS_P1;PMS_P2;Temp;Humidity;BMP_temperature;BMP_pressure;BME280_temperature;BME280_humidity;BME280_pressure;Samples;Min_cycle;Max_cycle;Signal;HPM_P1;HPM_P2
2021/09/10 00:01:14;;;;;;;40.80;25.20;;;;;;;20.12;100.00;99892.75;5088624;28;20052;-80
2021/09/10 00:03:42;;;;;;;33.13;22.08;;;;;;;20.14;100.00;99899.63;5089002;28;20053;-80
2021/09/10 00:06:09;;;;;;;40.20;24.38;;;;;;;20.20;100.00;99900.88;5083149;28;20049;-80
2021/09/10 00:08:37;;;;;;;37.03;24.55;;;;;;;20.23;100.00;99899.28;5069473;28;20401;-80
2021/09/10 00:11:05;;;;;;;34.42;23.65;;;;;;;20.25;100.00;99900.50;5067914;28;20053;-80
2021/09/10 00:13:33;;;;;;;40.75;24.55;;;;;;;20.31;100.00;99902.97;5067787;28;20508;-80
2021/09/10 00:16:00;;;;;;;37.38;23.30;;;;;;;20.30;100.00;99892.84;5067647;28;20061;-80
2021/09/10 00:18:29;;;;;;;37.65;24.20;;;;;;;20.27;100.00;99900.13;5066705;28;20064;-80
2021/09/10 00:20:56;;;;;;;39.97;24.10;;;;;;;20.26;100.00;99898.47;5066955;28;20049;-80
2021/09/10 00:23:24;;;;;;;34.28;22.75;;;;;;;20.24;99.50;99900.88;5079843;28;20486;-80
2021/09/10 00:25:51;;;;;;;41.65;25.98;;;;;;;20.19;99.45;99890.75;5065913;28;20052;-80
2021/09/10 00:28:20;;;;;;;37.53;24.65;;;;;;;20.19;98.91;99892.78;5066156;28;20045;-80
2021/09/10 00:30:47;;;;;;;42.35;25.75;;;;;;;20.18;99.12;99903.28;5065088;28;20067;-80
2021/09/10 00:33:15;;;;;;;35.58;23.08;;;;;;;20.15;98.55;99904.06;5074603;28;20049;-80
2021/09/10 00:35:42;;;;;;;39.40;25.50;;;;;;;20.14;98.37;99902.47;5067030;28;20048;-80
2021/09/10 00:38:09;;;;;;;37.80;24.40;;;;;;;20.15;98.26;99903.25;5065402;28;20045;-80
2021/09/10 00:40:37;;;;;;;34.33;24.25;;;;;;;20.22;97.18;99901.31;5066662;28;20078;-80
2021/09/10 00:43:05;;;;;;;39.90;24.08;;;;;;;20.24;96.45;99901.72;5069703;28;20047;-80
2021/09/10 00:45:34;;;;;;;39.85;24.17;;;;;;;20.25;96.04;99902.53;5084451;28;20052;-80
2021/09/10 00:48:01;;;;;;;33.63;23.38;;;;;;;20.22;95.60;99898.47;5085840;28;20059;-80
2021/09/10 00:50:29;;;;;;;29.95;21.25;;;;;;;20.24;94.80;99898.88;5089589;28;20067;-80
2021/09/10 00:52:56;;;;;;;30.90;21.23;;;;;;;20.23;94.43;99900.09;5091982;28;20052;-80
2021/09/10 00:55:26;;;;;;;31.60;21.52;;;;;;;20.22;94.42;99906.13;5092274;28;20052;-80
2021/09/10 00:57:53;;;;;;;24.92;19.17;;;;;;;20.21;93.98;99896.84;5087175;28;20055;-80
2021/09/10 01:00:21;;;;;;;31.95;21.92;;;;;;;20.18;93.92;99899.63;5074458;28;20051;-80
2021/09/10 01:02:51;;;;;;;37.33;22.75;;;;;;;20.16;93.53;99902.03;5082779;28;20055;-79
2021/09/10 01:05:19;;;;;;;25.23;20.15;;;;;;;20.17;93.85;99909.34;5082543;28;20063;-79
2021/09/10 01:07:48;;;;;;;26.20;19.25;;;;;;;20.18;93.49;99908.13;5082262;28;20060;-80
2021/09/10 01:10:17;;;;;;;28.77;19.90;;;;;;;20.17;93.37;99909.34;5083189;28;20052;-79
2021/09/10 01:12:44;;;;;;;31.00;22.63;;;;;;;20.14;92.96;99912.94;5081246;28;20052;-80
2021/09/10 01:15:12;;;;;;;30.92;21.55;;;;;;;20.14;93.45;99908.13;5083842;28;20048;-79
2021/09/10 01:17:43;;;;;;;27.30;19.45;;;;;;;20.14;93.07;99913.78;5083278;28;20052;-80
2021/09/10 01:20:12;;;;;;;24.02;19.02;;;;;;;20.12;92.96;99910.53;5083118;28;20048;-80
2021/09/10 01:22:40;;;;;;;29.80;20.60;;;;;;;20.07;93.00;99913.69;5082508;28;20052;-80
2021/09/10 01:25:17;;;;;;;25.13;18.27;;;;;;;20.06;93.46;99910.06;5081519;28;20064;-80
2021/09/10 01:27:46;;;;;;;28.50;20.23;;;;;;;20.07;93.75;99908.88;5062006;28;20060;-80
2021/09/10 01:30:16;;;;;;;32.03;21.92;;;;;;;20.10;93.56;99912.13;5062025;28;20489;-80
2021/09/10 01:32:44;;;;;;;32.85;22.70;;;;;;;20.15;93.34;99908.91;5062446;28;20064;-79
2021/09/10 01:35:12;;;;;;;34.55;22.05;;;;;;;20.18;93.48;99906.13;5080977;28;20049;-80
2021/09/10 01:37:42;;;;;;;36.53;23.85;;;;;;;20.20;93.31;99914.19;5082517;28;20044;-80
2021/09/10 01:40:13;;;;;;;35.55;24.35;;;;;;;20.21;93.64;99913.00;5080968;28;20063;-79
2021/09/10 01:42:41;;;;;;;34.22;23.23;;;;;;;20.20;93.56;99909.38;5062923;28;20060;-79
2021/09/10 01:45:14;;;;;;;34.47;24.30;;;;;;;20.23;93.71;99921.91;5062942;28;20065;-80
2021/09/10 01:47:42;;;;;;;33.67;23.30;;;;;;;20.21;93.77;99913.81;5062000;28;20053;-79
2021/09/10 01:50:11;;;;;;;35.55;24.58;;;;;;;20.22;93.63;99914.59;5065921;28;20049;-79
2021/09/10 01:52:39;;;;;;;34.80;24.02;;;;;;;20.24;93.56;99924.34;5080663;28;20049;-80
2021/09/10 01:55:08;;;;;;;31.75;23.40;;;;;;;20.26;93.05;99913.44;5080585;28;20045;-80
2021/09/10 01:57:36;;;;;;;35.75;24.42;;;;;;;20.28;93.24;99919.53;5062253;28;20049;-79
2021/09/10 02:00:06;;;;;;;35.22;24.17;;;;;;;20.30;93.16;99913.44;5062876;28;20049;-79
2021/09/10 02:02:33;;;;;;;34.75;23.00;;;;;;;20.30;93.22;99913.44;5081029;28;20052;-79
2021/09/10 02:05:00;;;;;;;34.65;23.75;;;;;;;20.31;93.07;99923.56;5081687;28;20049;-80
2021/09/10 02:07:28;;;;;;;38.00;25.15;;;;;;;20.32;92.98;99916.69;5075636;28;20068;-79
2021/09/10 02:09:55;;;;;;;33.53;23.48;;;;;;;20.33;92.81;99915.50;5060386;28;20052;-78
2021/09/10 02:12:23;;;;;;;29.33;21.85;;;;;;;20.33;92.45;99909.03;5059389;28;20059;-79
2021/09/10 02:14:53;;;;;;;34.53;22.77;;;;;;;20.32;92.62;99908.22;5058564;28;20049;-79
2021/09/10 02:17:21;;;;;;;30.85;21.85;;;;;;;20.35;92.41;99906.59;5059734;28;20052;-79
2021/09/10 02:19:49;;;;;;;31.05;22.08;;;;;;;20.35;92.14;99906.59;5059210;28;20065;-79
2021/09/10 02:22:19;;;;;;;35.10;23.20;;;;;;;20.33;92.09;99912.69;5060019;28;20053;-78
2021/09/10 02:24:47;;;;;;;34.80;23.00;;;;;;;20.28;91.74;99907.38;5058918;28;20057;-79
2021/09/10 02:27:15;;;;;;;35.22;24.10;;;;;;;20.31;91.77;99911.47;5058772;28;20052;-79
2021/09/10 02:29:43;;;;;;;32.87;21.50;;;;;;;20.33;91.64;99909.03;5058853;28;20052;-79
2021/09/10 02:32:12;;;;;;;31.77;22.90;;;;;;;20.30;91.71;99915.47;5059868;28;20831;-79
2021/09/10 02:34:39;;;;;;;34.25;23.05;;;;;;;20.30;91.52;99918.31;5058706;28;20466;-79
2021/09/10 02:37:07;;;;;;;34.22;23.20;;;;;;;20.25;91.50;99903.31;5058529;28;20049;-79
2021/09/10 02:39:34;;;;;;;32.47;23.58;;;;;;;20.23;91.53;99900.09;5058257;28;20056;-79
2021/09/10 02:42:01;;;;;;;31.85;22.70;;;;;;;20.21;91.41;99910.97;5058622;28;20418;-79
2021/09/10 02:44:30;;;;;;;33.58;22.05;;;;;;;20.20;91.42;99908.53;5059233;28;20067;-79
2021/09/10 02:46:57;;;;;;;33.53;24.20;;;;;;;20.17;91.22;99903.69;5059094;28;20055;-79
2021/09/10 02:49:26;;;;;;;36.30;23.80;;;;;;;20.16;91.19;99913.34;5058924;28;20845;-79
2021/09/10 02:51:53;;;;;;;36.50;23.63;;;;;;;20.14;91.38;99908.13;5059486;28;20072;-79
2021/09/10 02:54:21;;;;;;;35.35;22.83;;;;;;;20.15;91.41;99906.91;5057171;28;20049;-79
2021/09/10 02:56:48;;;;;;;32.03;23.15;;;;;;;20.18;91.28;99902.47;5059905;28;20371;-79
2021/09/10 02:59:15;;;;;;;32.67;22.88;;;;;;;20.16;90.96;99905.72;5059794;28;20045;-79
2021/09/10 03:01:44;;;;;;;32.67;22.73;;;;;;;20.14;90.94;99902.47;5059258;28;20504;-79
2021/09/10 03:04:12;;;;;;;36.22;23.75;;;;;;;20.08;91.30;99904.84;5057956;28;20057;-79
2021/09/10 03:06:41;;;;;;;35.50;24.08;;;;;;;20.07;91.38;99903.22;5037769;28;20054;-79
2021/09/10 03:09:08;;;;;;;35.33;23.70;;;;;;;20.09;91.46;99902.81;5057008;28;20144;-79
2021/09/10 03:11:36;;;;;;;35.10;22.40;;;;;;;20.10;91.06;99895.97;5065681;28;20056;-79
2021/09/10 03:14:03;;;;;;;28.23;21.45;;;;;;;20.10;91.04;99895.16;5077647;28;20057;-79
2021/09/10 03:16:31;;;;;;;28.55;21.30;;;;;;;20.07;90.82;99891.09;5082118;28;20572;-79
2021/09/10 03:18:59;;;;;;;32.13;21.73;;;;;;;20.05;91.18;99902.81;5065399;28;20063;-79
2021/09/10 03:21:27;;;;;;;31.05;21.58;;;;;;;20.05;90.94;99893.50;5083348;28;20068;-79
2021/09/10 03:23:56;;;;;;;34.25;22.55;;;;;;;20.05;90.79;99896.31;5081685;28;20048;-79
2021/09/10 03:26:23;;;;;;;36.22;24.95;;;;;;;20.04;90.79;99903.19;5083193;28;20049;-79
2021/09/10 03:28:51;;;;;;;36.42;24.25;;;;;;;19.95;90.75;99886.56;5082525;28;20508;-79
2021/09/10 03:31:19;;;;;;;34.75;23.63;;;;;;;19.92;90.75;99889.38;5082985;28;20048;-79
2021/09/10 03:33:46;;;;;;;36.63;23.45;;;;;;;19.89;91.16;99888.16;5082180;28;20059;-79
2021/09/10 03:36:14;;;;;;;33.40;22.48;;;;;;;19.87;91.35;99880.03;5082260;28;20064;-79
2021/09/10 03:38:41;;;;;;;33.33;23.40;;;;;;;19.86;91.12;99878.44;5082164;28;20051;-79
2021/09/10 03:41:10;;;;;;;32.05;22.90;;;;;;;19.90;91.44;99886.13;5082353;28;20500;-79
2021/09/10 03:43:37;;;;;;;35.15;22.48;;;;;;;19.87;90.87;99882.88;5081878;28;20068;-79
2021/09/10 03:46:05;;;;;;;35.03;23.08;;;;;;;19.86;90.81;99877.59;5082022;28;20052;-79
2021/09/10 03:48:32;;;;;;;36.35;23.55;;;;;;;19.85;90.53;99873.16;5082519;28;20060;-79
2021/09/10 03:51:00;;;;;;;38.35;25.88;;;;;;;19.80;90.53;99880.00;5082706;28;20056;-79
2021/09/10 03:53:27;;;;;;;34.92;22.98;;;;;;;19.73;90.49;99879.94;5081436;28;20059;-79
2021/09/10 03:55:55;;;;;;;42.70;26.02;;;;;;;19.66;90.64;99877.84;5081999;28;20048;-79
2021/09/10 03:58:24;;;;;;;31.20;22.30;;;;;;;19.64;90.41;99883.06;5082998;28;20045;-79
2021/09/10 04:00:51;;;;;;;39.20;25.55;;;;;;;19.61;90.59;99878.22;5081816;28;20048;-79
2021/09/10 04:03:19;;;;;;;37.60;24.60;;;;;;;19.55;90.43;99884.59;5082225;28;20063;-79
2021/09/10 04:05:48;;;;;;;39.30;24.98;;;;;;;19.52;90.31;99891.03;5081611;28;20053;-79
2021/09/10 04:08:15;;;;;;;43.63;28.15;;;;;;;19.50;90.56;99890.59;5064159;28;20387;-79
2021/09/10 04:10:43;;;;;;;40.30;26.67;;;;;;;19.47;90.63;99887.34;5042095;28;20061;-79
2021/09/10 04:13:10;;;;;;;40.30;25.70;;;;;;;19.45;90.61;99889.75;5044987;28;20052;-79
2021/09/10 04:15:39;;;;;;;41.17;26.45;;;;;;;19.45;90.38;99892.59;5061798;28;20053;-79
2021/09/10 04:18:06;;;;;;;42.05;24.95;;;;;;;19.44;90.39;99893.78;5062191;28;20057;-79
2021/09/10 04:20:34;;;;;;;38.92;24.83;;;;;;;19.43;90.25;99897.81;5062140;28;20056;-79
2021/09/10 04:23:02;;;;;;;38.10;24.10;;;;;;;19.39;90.14;99896.97;5060828;28;20060;-79
2021/09/10 04:25:30;;;;;;;33.60;22.10;;;;;;;19.39;90.09;99893.34;5060244;28;20056;-79
2021/09/10 04:27:57;;;;;;;37.83;23.95;;;;;;;19.35;90.03;99898.13;5061968;28;20053;-79
2021/09/10 04:30:25;;;;;;;38.20;24.55;;;;;;;19.33;89.74;99892.88;5061713;28;20497;-79
2021/09/10 04:32:54;;;;;;;39.40;25.13;;;;;;;19.29;89.69;99900.47;5062193;28;20064;-79
2021/09/10 04:35:21;;;;;;;39.75;26.00;;;;;;;19.27;90.08;99894.41;5061162;28;20068;-79
2021/09/10 04:37:48;;;;;;;32.47;21.30;;;;;;;19.29;90.13;99903.31;5062234;28;20053;-79
2021/09/10 04:40:18;;;;;;;34.70;23.90;;;;;;;19.30;90.46;99899.31;5061987;28;20104;-79
2021/09/10 04:42:45;;;;;;;;;;;;;;;19.27;92.08;99894.41;5060781;28;20474;-79
2021/09/10 04:45:12;;;;;;;33.35;23.05;;;;;;;19.27;91.08;99889.56;5061587;28;19921;-79
2021/09/10 04:47:40;;;;;;;31.65;22.80;;;;;;;19.29;90.75;99897.66;5061702;28;20064;-79
2021/09/10 04:50:10;;;;;;;34.28;23.00;;;;;;;19.27;90.80;99908.53;5061768;28;20044;-79
2021/09/10 04:52:38;;;;;;;29.65;21.48;;;;;;;19.31;90.70;99911.41;5060844;28;20057;-79
2021/09/10 04:55:07;;;;;;;29.95;22.27;;;;;;;19.31;90.86;99905.75;5061692;28;20068;-79
2021/09/10 04:57:35;;;;;;;37.80;23.42;;;;;;;19.33;90.64;99901.34;5060919;28;20061;-79
2021/09/10 05:00:04;;;;;;;34.30;22.95;;;;;;;19.35;90.37;99898.94;5058223;28;20056;-79
2021/09/10 05:02:34;;;;;;;35.07;22.77;;;;;;;19.35;90.48;99904.59;5061090;28;20052;-79
2021/09/10 05:05:02;;;;;;;35.80;22.70;;;;;;;19.35;90.87;99898.13;5060713;28;20045;-79
2021/09/10 05:07:30;;;;;;;33.63;22.92;;;;;;;19.38;90.65;99900.16;5060701;28;20056;-79
2021/09/10 05:09:58;;;;;;;33.67;23.58;;;;;;;19.41;90.38;99910.69;5060838;28;20060;-79
2021/09/10 05:12:25;;;;;;;38.95;24.17;;;;;;;19.44;90.49;99902.28;5068965;28;20059;-79
2021/09/10 05:14:53;;;;;;;28.60;20.85;;;;;;;19.45;90.64;99905.91;5080174;28;20067;-79
2021/09/10 05:17:22;;;;;;;38.95;24.52;;;;;;;19.51;90.50;99904.34;5079401;28;20052;-79
2021/09/10 05:19:50;;;;;;;32.83;22.42;;;;;;;19.58;90.58;99909.25;5072115;28;20053;-79
2021/09/10 05:22:17;;;;;;;35.80;24.33;;;;;;;19.62;90.56;99907.25;5060011;28;20056;-79
2021/09/10 05:24:46;;;;;;;32.50;23.25;;;;;;;19.67;90.09;99910.56;5062318;28;20057;-79
2021/09/10 05:27:14;;;;;;;37.47;25.58;;;;;;;19.75;90.26;99904.97;5060100;28;20075;-79
2021/09/10 05:29:41;;;;;;;37.05;24.65;;;;;;;19.81;90.02;99909.88;5062987;28;20075;-79
2021/09/10 05:32:08;;;;;;;32.88;21.90;;;;;;;19.89;89.63;99913.59;5072330;28;20052;-79
2021/09/10 05:34:36;;;;;;;22.92;17.95;;;;;;;19.90;89.21;99915.19;5075452;28;20493;-79
2021/09/10 05:37:05;;;;;;;28.95;23.08;;;;;;;19.99;89.39;99921.34;5060007;28;20409;-79
2021/09/10 05:39:32;;;;;;;32.42;22.73;;;;;;;20.10;89.26;99912.13;5059026;28;20065;-80
2021/09/10 05:42:01;;;;;;;28.77;21.38;;;;;;;20.17;88.85;99920.66;5055951;28;20500;-80
2021/09/10 05:44:28;;;;;;;32.28;22.40;;;;;;;20.24;89.07;99929.16;5072686;28;20057;-79
2021/09/10 05:46:55;;;;;;;31.30;22.63;;;;;;;20.31;89.09;99928.44;5079735;28;20048;-80
2021/09/10 05:49:22;;;;;;;32.22;23.08;;;;;;;20.37;89.30;99932.47;5068986;28;20048;-79
2021/09/10 05:51:50;;;;;;;30.08;20.88;;;;;;;20.44;88.86;99933.34;5072828;28;20049;-80
2021/09/10 05:54:17;;;;;;;26.20;20.48;;;;;;;20.51;88.57;99938.22;5065319;28;20041;-80
2021/09/10 05:56:44;;;;;;;31.60;22.55;;;;;;;20.48;88.08;99939.84;5063378;28;20055;-80
2021/09/10 05:59:13;;;;;;;28.27;21.02;;;;;;;20.39;88.08;99942.22;5060654;28;20067;-80
2021/09/10 06:01:41;;;;;;;27.23;21.67;;;;;;;20.48;88.61;99950.34;5064956;28;20049;-80
2021/09/10 06:04:08;;;;;;;23.05;18.52;;;;;;;20.52;88.75;99951.19;5071177;28;20049;-80
2021/09/10 06:06:38;;;;;;;27.20;20.15;;;;;;;20.70;88.75;99956.16;5059923;28;20049;-80
2021/09/10 06:09:06;;;;;;;21.40;17.42;;;;;;;20.72;88.24;99960.22;5059938;28;20075;-80
2021/09/10 06:11:33;;;;;;;28.23;20.42;;;;;;;20.79;88.16;99959.44;5080752;28;20515;-80
2021/09/10 06:14:00;;;;;;;25.50;19.30;;;;;;;20.77;87.74;99959.84;5078683;28;20048;-79
2021/09/10 06:16:29;;;;;;;23.73;18.17;;;;;;;20.80;88.12;99961.88;5072361;28;20057;-83
2021/09/10 06:18:56;;;;;;;22.70;17.38;;;;;;;20.84;88.17;99970.38;5063056;28;20057;-79
2021/09/10 06:21:24;;;;;;;24.17;17.35;;;;;;;20.85;88.09;99963.50;5066641;28;20521;-79
2021/09/10 06:23:51;;;;;;;21.75;17.88;;;;;;;20.86;88.04;99970.81;5076816;28;20051;-79
2021/09/10 06:26:22;;;;;;;26.48;18.40;;;;;;;20.89;88.11;99978.50;5080029;28;20048;-79
2021/09/10 06:28:50;;;;;;;23.20;19.20;;;;;;;20.94;88.37;99978.13;5080524;28;20370;-78
2021/09/10 06:31:17;;;;;;;24.40;18.85;;;;;;;20.99;88.20;99977.72;5073151;28;20060;-80
2021/09/10 06:33:46;;;;;;;20.08;17.25;;;;;;;21.02;87.68;99978.94;5080315;28;20064;-79
2021/09/10 06:36:13;;;;;;;22.60;17.55;;;;;;;21.07;87.70;99985.06;5072298;28;20048;-81
2021/09/10 06:38:41;;;;;;;26.75;19.77;;;;;;;21.14;87.52;99987.09;5062609;28;20376;-80
2021/09/10 06:41:09;;;;;;;21.52;17.90;;;;;;;21.09;86.86;99991.13;5063049;28;20049;-81
2021/09/10 06:43:36;;;;;;;23.70;17.77;;;;;;;21.23;86.99;99989.56;5061308;28;20060;-80
2021/09/10 06:46:04;;;;;;;21.35;17.45;;;;;;;21.21;86.15;99986.34;5061456;28;20064;-80
2021/09/10 06:48:32;;;;;;;22.52;17.42;;;;;;;21.32;86.22;99986.38;5072349;28;20055;-80
2021/09/10 06:51:01;;;;;;;22.15;17.25;;;;;;;21.44;85.93;99983.16;5051396;28;20068;-80
2021/09/10 06:53:28;;;;;;;20.65;16.33;;;;;;;21.56;85.60;99987.66;5061059;28;20065;-80
2021/09/10 06:55:56;;;;;;;26.80;15.73;;;;;;;21.60;84.66;99997.78;5062783;28;20056;-80
2021/09/10 06:58:23;;;;;;;20.88;17.30;;;;;;;21.73;84.73;99986.88;5081125;28;20048;-80
2021/09/10 07:00:51;;;;;;;20.83;16.85;;;;;;;21.81;84.58;99985.69;5075875;28;20485;-76
2021/09/10 07:03:18;;;;;;;20.58;15.07;;;;;;;21.89;84.12;99990.16;5065216;28;20052;-78
2021/09/10 07:05:46;;;;;;;18.27;14.60;;;;;;;22.04;83.79;99978.81;5070069;28;20499;-78
2021/09/10 07:08:15;;;;;;;15.32;13.73;;;;;;;22.26;83.77;99993.84;5076678;28;20059;-76
2021/09/10 07:10:42;;;;;;;20.40;15.00;;;;;;;22.36;83.55;99992.22;5087841;28;20063;-76
2021/09/10 07:13:11;;;;;;;17.35;15.55;;;;;;;22.39;83.36;99991.41;5070942;28;20055;-76
2021/09/10 07:15:40;;;;;;;16.23;13.75;;;;;;;22.43;83.14;99992.22;5074325;28;20045;-78
2021/09/10 07:18:07;;;;;;;;;;;;;;;22.46;83.94;99994.22;5079800;28;20068;-77
2021/09/10 07:20:35;;;;;;;16.73;14.85;;;;;;;22.57;82.97;99992.16;5073499;28;20012;-78
2021/09/10 07:23:02;;;;;;;19.50;14.15;;;;;;;22.75;82.54;99994.19;5079351;28;20052;-80
2021/09/10 07:25:31;;;;;;;16.88;14.15;;;;;;;22.96;81.80;99999.78;5070267;28;20076;-77
2021/09/10 07:27:58;;;;;;;15.73;13.27;;;;;;;23.30;81.33;99999.28;5071755;28;20040;-77
2021/09/10 07:30:26;;;;;;;15.05;13.52;;;;;;;23.72;80.41;100008.78;5080085;28;20072;-77
2021/09/10 07:32:54;;;;;;;13.73;11.50;;;;;;;24.75;79.05;99994.16;5083219;28;20401;-76
2021/09/10 07:35:21;;;;;;;13.30;10.52;;;;;;;25.31;76.44;100011.84;5076112;28;20067;-78
2021/09/10 07:37:49;;;;;;;11.70;10.50;;;;;;;25.44;75.22;99995.78;5080747;28;20048;-77
2021/09/10 07:40:16;;;;;;;11.00;9.90;;;;;;;25.51;74.09;99992.84;5070505;28;20386;-78
2021/09/10 07:42:48;;;;;;;13.45;10.52;;;;;;;25.62;72.92;99998.41;5076173;28;20055;-78
2021/09/10 07:45:15;;;;;;;11.45;9.85;;;;;;;26.05;72.10;99997.75;5079868;28;20497;-78
2021/09/10 07:47:43;;;;;;;8.25;7.25;;;;;;;26.28;70.82;99994.09;5081331;28;20397;-78
2021/09/10 07:50:11;;;;;;;10.45;9.27;;;;;;;26.35;70.15;99995.22;5079271;28;20052;-78
2021/09/10 07:52:38;;;;;;;9.63;8.70;;;;;;;26.59;69.59;99994.00;5074713;28;20052;-79
2021/09/10 07:55:07;;;;;;;9.32;7.95;;;;;;;27.02;68.72;99993.16;5082526;28;20052;-78
2021/09/10 07:57:34;;;;;;;8.77;7.50;;;;;;;27.40;65.65;99992.81;5069332;28;20059;-77
2021/09/10 08:00:06;;;;;;;7.55;6.10;;;;;;;27.41;65.64;99994.44;5078854;28;20055;-80
2021/09/10 08:02:33;;;;;;;8.30;6.50;;;;;;;27.37;65.37;99990.84;5078065;28;20059;-77
2021/09/10 08:05:02;;;;;;;7.35;6.57;;;;;;;27.35;63.52;100007.63;5075639;28;20091;-78
2021/09/10 08:07:29;;;;;;;8.52;6.43;;;;;;;26.85;64.35;99998.00;5075276;28;20057;-78
2021/09/10 08:09:58;;;;;;;9.65;6.45;;;;;;;26.57;64.42;100002.22;5073523;28;20064;-78
2021/09/10 08:12:27;;;;;;;6.63;5.72;;;;;;;26.39;61.55;100001.69;5074398;28;20052;-79
2021/09/10 08:14:54;;;;;;;6.47;5.85;;;;;;;26.85;64.63;99992.28;5080768;28;20516;-78
2021/09/10 08:17:23;;;;;;;8.70;5.43;;;;;;;27.18;64.23;100008.81;5076995;28;20401;-79
2021/09/10 08:19:51;;;;;;;;;;;;;;;28.42;58.33;100000.66;5081034;28;20052;-78
2021/09/10 08:22:19;;;;;;;5.72;5.03;;;;;;;29.61;58.58;100003.88;5086155;28;20360;-79
2021/09/10 08:24:47;;;;;;;5.90;4.93;;;;;;;30.11;53.13;100008.03;5078567;28;20060;-79
2021/09/10 08:27:15;;;;;;;5.25;4.50;;;;;;;30.99;52.28;100010.41;5087290;28;20045;-77
2021/09/10 08:29:43;;;;;;;5.40;4.50;;;;;;;32.10;49.91;99998.28;5083010;28;20063;-81
2021/09/10 08:32:10;;;;;;;5.03;4.35;;;;;;;33.47;48.18;99998.88;5087861;28;20463;-81
2021/09/10 08:34:39;;;;;;;5.13;4.25;;;;;;;33.65;46.44;99997.25;5081143;28;20057;-81
2021/09/10 08:37:07;;;;;;;4.63;4.22;;;;;;;34.12;44.48;100001.53;5077703;28;20052;-79
2021/09/10 08:39:34;;;;;;;4.25;3.85;;;;;;;34.43;42.69;100009.09;5084398;28;20049;-79
2021/09/10 08:42:02;;;;;;;5.32;3.63;;;;;;;34.03;43.44;100013.94;5085933;28;20492;-79
2021/09/10 08:44:30;;;;;;;4.70;3.80;;;;;;;32.99;44.37;100018.81;5075598;28;20055;-80
2021/09/10 08:46:58;;;;;;;3.97;3.60;;;;;;;33.08;43.47;100013.06;5074624;28;20049;-79
2021/09/10 08:49:25;;;;;;;5.28;4.60;;;;;;;31.47;45.68;100011.09;5078833;28;20057;-80
2021/09/10 08:51:54;;;;;;;5.45;4.13;;;;;;;31.27;46.58;100015.09;5078517;28;20068;-80
2021/09/10 08:54:22;;;;;;;4.80;4.40;;;;;;;32.13;45.16;100022.50;5082553;28;20689;-80
2021/09/10 08:56:50;;;;;;;4.82;3.90;;;;;;;33.44;43.13;100022.94;5087722;28;20070;-82
2021/09/10 08:59:19;;;;;;;4.95;4.45;;;;;;;33.78;41.62;100012.28;5081364;28;20044;-81
2021/09/10 09:01:52;;;;;;;4.15;3.25;;;;;;;34.47;39.54;100027.06;5085166;28;20060;-82
2021/09/10 09:04:20;;;;;;;3.63;2.97;;;;;;;32.91;41.98;100024.09;5076946;28;20055;-80
2021/09/10 09:06:51;;;;;;;5.32;3.50;;;;;;;31.88;41.77;100020.59;5074088;28;20048;-80
2021/09/10 09:09:40;;;;;;;5.35;3.42;;;;;;;30.99;44.68;100030.53;5075140;28;20052;-80
2021/09/10 09:12:20;;;;;;;4.40;3.88;;;;;;;31.89;41.45;100033.72;5080055;28;20056;-80
2021/09/10 09:14:49;;;;;;;5.63;3.85;;;;;;;32.04;42.47;100033.97;5078862;28;20048;-80
2021/09/10 09:17:29;;;;;;;5.15;3.60;;;;;;;32.09;40.39;100039.13;5064367;28;20045;-80
2021/09/10 09:20:20;;;;;;;4.38;3.97;;;;;;;34.31;37.42;100037.78;5074900;28;20550;-80
2021/09/10 09:22:58;;;;;;;4.45;3.55;;;;;;;36.06;34.87;100031.75;5063746;28;20063;-80
2021/09/10 09:25:28;;;;;;;3.97;3.50;;;;;;;37.02;33.01;100028.09;5081652;28;20418;-79
2021/09/10 09:27:56;;;;;;;4.43;3.60;;;;;;;38.01;30.64;100033.06;5081285;28;20056;-80
2021/09/10 09:30:39;;;;;;;5.97;3.08;;;;;;;37.36;29.73;100037.22;5083996;28;20056;-81
2021/09/10 09:33:06;;;;;;;4.50;3.15;;;;;;;37.57;30.82;100030.06;5090576;28;20071;-83
2021/09/10 09:35:34;;;;;;;3.55;3.00;;;;;;;37.24;30.66;100029.72;5089436;28;20052;-82
2021/09/10 09:38:12;;;;;;;4.25;3.15;;;;;;;38.04;28.83;100032.84;5078791;28;20064;-84
2021/09/10 09:40:42;;;;;;;4.57;3.28;;;;;;;38.97;26.94;100022.81;5078768;28;20048;-83
2021/09/10 09:43:15;;;;;;;3.42;3.00;;;;;;;39.97;26.44;100021.41;5083914;28;20045;-84
2021/09/10 09:45:42;;;;;;;3.90;2.97;;;;;;;41.04;25.17;100016.63;5080753;28;20060;-82
2021/09/10 09:48:11;;;;;;;5.10;3.50;;;;;;;40.20;26.28;100015.56;5096017;28;20044;-81
2021/09/10 09:50:39;;;;;;;4.00;3.03;;;;;;;41.20;24.37;100018.66;5090224;28;20052;-82
2021/09/10 09:53:07;;;;;;;3.58;2.92;;;;;;;40.67;24.32;100014.91;5079970;28;20066;-79
2021/09/10 09:55:35;;;;;;;3.60;2.88;;;;;;;41.98;23.34;100017.31;5079946;28;20055;-82
2021/09/10 09:58:09;;;;;;;3.65;3.00;;;;;;;43.18;21.77;100012.47;5077743;28;20051;-81
2021/09/10 10:00:39;;;;;;;3.70;3.20;;;;;;;44.20;21.13;100016.72;5089853;28;20051;-82
2021/09/10 10:03:07;;;;;;;3.95;2.78;;;;;;;45.14;20.19;100014.53;5083371;28;20045;-82
2021/09/10 10:05:59;;;;;;;3.20;2.47;;;;;;;44.59;20.91;100021.06;5081480;28;20048;-82
2021/09/10 10:08:32;;;;;;;4.95;2.30;;;;;;;43.26;21.68;100020.66;5085800;28;20064;-81
2021/09/10 10:11:08;;;;;;;4.05;2.20;;;;;;;41.96;22.78;100028.75;5096811;28;20055;-83
2021/09/10 10:13:37;;;;;;;2.97;2.20;;;;;;;41.29;23.26;100032.97;5095331;28;20053;-84
2021/09/10 10:16:05;;;;;;;2.78;2.40;;;;;;;39.86;25.10;100036.03;5090555;28;20048;-82
2021/09/10 10:18:36;;;;;;;;;;;;;;;38.46;26.12;100033.41;5089988;28;20389;-79
2021/09/10 10:21:03;;;;;;;4.30;2.40;;;;;;;37.36;28.02;100019.81;5079284;28;19920;-82
2021/09/10 10:23:50;;;;;;;3.35;2.88;;;;;;;37.36;27.61;100028.53;5070981;28;20056;-82
2021/09/10 10:26:20;;;;;;;3.85;2.50;;;;;;;36.92;28.31;100027.47;5078722;28;20052;-82
2021/09/10 10:28:51;;;;;;;4.30;2.40;;;;;;;36.85;28.71;100022.09;5090283;28;20048;-81
2021/09/10 10:31:39;;;;;;;2.42;2.10;;;;;;;36.24;30.80;100033.63;5082068;28;20056;-80
2021/09/10 10:34:08;;;;;;;3.45;2.50;;;;;;;35.88;30.72;100024.09;5097558;28;20461;-81
2021/09/10 10:36:36;;;;;;;3.58;2.15;;;;;;;34.39;32.32;100025.84;5079719;28;20049;-79
2021/09/10 10:39:18;;;;;;;;;;;;;;;34.21;33.20;100018.88;5073147;28;20528;-79
2021/09/10 10:41:47;;;;;;;4.15;2.47;;;;;;;33.76;33.83;100017.75;5081084;28;19928;-79
2021/09/10 10:44:47;;;;;;;4.05;2.35;;;;;;;32.81;35.79;100024.56;5084817;28;20052;-79
2021/09/10 10:47:17;;;;;;;3.03;2.00;;;;;;;32.87;36.10;100019.78;5084398;28;20048;-79
2021/09/10 10:49:47;;;;;;;3.30;2.90;;;;;;;32.79;35.66;100018.47;5080767;28;20059;-79
2021/09/10 10:52:35;;;;;;;4.63;3.00;;;;;;;35.61;32.70;100022.28;5083214;28;20044;-79
2021/09/10 10:55:18;;;;;;;;;;;;;;;36.64;30.44;100015.50;5075786;28;20049;-78
2021/09/10 10:57:46;;;;;;;3.38;2.13;;;;;;;36.13;29.27;100006.06;5076248;28;19920;-79
2021/09/10 11:00:47;;;;;;;3.42;2.20;;;;;;;35.14;30.81;100013.28;5069127;28;20413;-79
2021/09/10 11:03:49;;;;;;;3.40;2.25;;;;;;;36.08;29.50;100000.16;5080867;28;20059;-80
2021/09/10 11:06:27;;;;;;;3.10;2.80;;;;;;;38.26;26.37;99999.41;5064130;28;20063;-80
2021/09/10 11:08:56;;;;;;;2.42;2.08;;;;;;;38.47;25.44;100006.69;5079755;28;20065;-81
2021/09/10 11:11:28;;;;;;;4.90;2.55;;;;;;;37.97;25.79;100002.13;5087161;28;20053;-82
2021/09/10 11:13:56;;;;;;;3.75;2.75;;;;;;;38.64;25.23;100003.06;5068648;28;20061;-79
2021/09/10 11:16:31;;;;;;;3.17;2.40;;;;;;;38.92;24.96;99998.16;5077591;28;20052;-78
2021/09/10 11:19:00;;;;;;;3.40;2.00;;;;;;;39.49;24.05;100002.03;5073128;28;20052;-79
2021/09/10 11:21:30;;;;;;;3.72;2.55;;;;;;;38.63;24.71;99992.75;5078823;28;20061;-82
2021/09/10 11:24:11;;;;;;;3.45;2.33;;;;;;;38.60;25.09;99991.72;5075041;28;20097;-81
2021/09/10 11:26:39;;;;;;;5.20;2.30;;;;;;;37.65;26.19;99988.91;5077850;28;20052;-80
2021/09/10 11:29:14;;;;;;;3.72;2.38;;;;;;;37.35;26.87;99994.94;5079942;28;20359;-80
2021/09/10 11:31:44;;;;;;;2.47;1.95;;;;;;;36.38;28.24;99995.88;5076577;28;20049;-80